sensor_id;sensor_type;location;lat;lon;timestamp;temperature;humidity
31575;DHT22;18182;1.328;103.810;2022-10-16T00:00:31;27.60;99.90
31575;DHT22;18182;1.328;103.810;2022-10-16T00:02:57;27.60;99.90
31575;DHT22;18182;1.328;103.810;2022-10-16T00:05:24;27.60;99.90
31575;DHT22;18182;1.328;103.810;2022-10-16T00:07:50;27.60;99.90
31575;DHT22;18182;1.328;103.810;2022-10-16T00:10:16;27.60;99.90
31575;DHT22;18182;1.328;103.810;2022-10-16T00:12:42;27.60;99.90
31575;DHT22;18182;1.328;103.810;2022-10-16T00:15:08;27.60;99.90
31575;DHT22;18182;1.328;103.810;2022-10-16T00:17:35;27.60;99.90
31575;DHT22;18182;1.328;103.810;2022-10-16T00:20:01;27.60;99.90
31575;DHT22;18182;1.328;103.810;2022-10-16T00:22:28;27.60;99.90
31575;DHT22;18182;1.328;103.810;2022-10-16T00:24:54;27.60;99.90
31575;DHT22;18182;1.328;103.810;2022-10-16T00:27:21;27.50;99.90
31575;DHT22;18182;1.328;103.810;2022-10-16T00:29:50;27.60;99.90
31575;DHT22;18182;1.328;103.810;2022-10-16T00:32:17;27.60;99.90
31575;DHT22;18182;1.328;103.810;2022-10-16T00:34:43;27.60;99.90
31575;DHT22;18182;1.328;103.810;2022-10-16T00:37:09;27.60;99.90
31575;DHT22;18182;1.328;103.810;2022-10-16T00:39:35;27.70;99.90
31575;DHT22;18182;1.328;103.810;2022-10-16T00:42:02;27.70;99.90
31575;DHT22;18182;1.328;103.810;2022-10-16T00:50:09;27.70;99.90
31575;DHT22;18182;1.328;103.810;2022-10-16T00:52:36;27.70;99.90
31575;DHT22;18182;1.328;103.810;2022-10-16T00:55:05;27.70;99.90
31575;DHT22;18182;1.328;103.810;2022-10-16T00:57:31;27.70;99.90
31575;DHT22;18182;1.328;103.810;2022-10-16T00:59:58;27.70;99.90
31575;DHT22;18182;1.328;103.810;2022-10-16T01:02:24;27.80;99.90
31575;DHT22;18182;1.328;103.810;2022-10-16T01:04:51;27.80;99.90
31575;DHT22;18182;1.328;103.810;2022-10-16T01:07:20;27.90;99.90
31575;DHT22;18182;1.328;103.810;2022-10-16T01:10:07;27.90;99.90
31575;DHT22;18182;1.328;103.810;2022-10-16T01:12:40;27.90;99.90
31575;DHT22;18182;1.328;103.810;2022-10-16T01:15:11;28.00;99.90
31575;DHT22;18182;1.328;103.810;2022-10-16T01:17:48;28.00;99.90
31575;DHT22;18182;1.328;103.810;2022-10-16T01:20:20;28.10;99.90
31575;DHT22;18182;1.328;103.810;2022-10-16T01:25:21;28.10;99.90
31575;DHT22;18182;1.328;103.810;2022-10-16T01:27:48;28.10;99.90
31575;DHT22;18182;1.328;103.810;2022-10-16T01:30:21;28.10;99.90
31575;DHT22;18182;1.328;103.810;2022-10-16T01:33:08;28.10;99.90
31575;DHT22;18182;1.328;103.810;2022-10-16T01:35:42;28.10;99.90
31575;DHT22;18182;1.328;103.810;2022-10-16T01:38:12;28.10;99.90
31575;DHT22;18182;1.328;103.810;2022-10-16T01:40:42;28.10;99.90
31575;DHT22;18182;1.328;103.810;2022-10-16T01:43:19;28.00;99.90
31575;DHT22;18182;1.328;103.810;2022-10-16T01:45:46;28.00;99.90
31575;DHT22;18182;1.328;103.810;2022-10-16T01:48:13;28.10;99.90
31575;DHT22;18182;1.328;103.810;2022-10-16T01:50:41;28.10;99.90
31575;DHT22;18182;1.328;103.810;2022-10-16T01:53:09;28.10;99.90
31575;DHT22;18182;1.328;103.810;2022-10-16T01:55:38;28.10;99.90
31575;DHT22;18182;1.328;103.810;2022-10-16T01:58:07;28.10;99.90
31575;DHT22;18182;1.328;103.810;2022-10-16T02:00:36;28.10;99.90
31575;DHT22;18182;1.328;103.810;2022-10-16T02:03:03;28.10;99.90
31575;DHT22;18182;1.328;103.810;2022-10-16T02:07:59;28.20;99.90
31575;DHT22;18182;1.328;103.810;2022-10-16T02:10:25;28.30;99.90
31575;DHT22;18182;1.328;103.810;2022-10-16T02:15:51;28.30;99.90
31575;DHT22;18182;1.328;103.810;2022-10-16T02:18:17;28.30;99.90
31575;DHT22;18182;1.328;103.810;2022-10-16T02:26:02;28.30;99.90
31575;DHT22;18182;1.328;103.810;2022-10-16T02:28:33;28.40;99.90
31575;DHT22;18182;1.328;103.810;2022-10-16T02:31:04;28.40;99.90
31575;DHT22;18182;1.328;103.810;2022-10-16T02:33:33;28.40;99.90
31575;DHT22;18182;1.328;103.810;2022-10-16T02:36:00;28.40;99.90
31575;DHT22;18182;1.328;103.810;2022-10-16T02:38:26;28.50;99.90
31575;DHT22;18182;1.328;103.810;2022-10-16T02:40:53;28.50;99.90
31575;DHT22;18182;1.328;103.810;2022-10-16T02:43:20;28.60;99.90
31575;DHT22;18182;1.328;103.810;2022-10-16T02:45:46;28.50;99.90
31575;DHT22;18182;1.328;103.810;2022-10-16T02:48:12;28.60;99.90
31575;DHT22;18182;1.328;103.810;2022-10-16T02:50:38;28.60;99.90
31575;DHT22;18182;1.328;103.810;2022-10-16T02:53:04;28.70;99.90
31575;DHT22;18182;1.328;103.810;2022-10-16T02:55:31;28.70;99.90
31575;DHT22;18182;1.328;103.810;2022-10-16T02:57:57;28.70;99.90
31575;DHT22;18182;1.328;103.810;2022-10-16T03:00:23;28.80;99.90
31575;DHT22;18182;1.328;103.810;2022-10-16T03:02:49;28.90;99.90
31575;DHT22;18182;1.328;103.810;2022-10-16T03:05:16;28.90;99.90
31575;DHT22;18182;1.328;103.810;2022-10-16T03:07:42;28.90;99.90
31575;DHT22;18182;1.328;103.810;2022-10-16T03:10:08;29.00;99.90
31575;DHT22;18182;1.328;103.810;2022-10-16T03:12:34;29.00;99.90
31575;DHT22;18182;1.328;103.810;2022-10-16T03:15:00;29.10;99.90
31575;DHT22;18182;1.328;103.810;2022-10-16T03:17:26;29.10;99.90
31575;DHT22;18182;1.328;103.810;2022-10-16T03:19:53;29.20;99.90
31575;DHT22;18182;1.328;103.810;2022-10-16T03:22:19;29.20;99.90
31575;DHT22;18182;1.328;103.810;2022-10-16T03:24:45;29.30;99.90
31575;DHT22;18182;1.328;103.810;2022-10-16T03:27:11;29.30;99.90
31575;DHT22;18182;1.328;103.810;2022-10-16T03:29:37;29.40;99.90
31575;DHT22;18182;1.328;103.810;2022-10-16T03:32:03;29.40;99.90
31575;DHT22;18182;1.328;103.810;2022-10-16T03:34:30;29.50;99.90
31575;DHT22;18182;1.328;103.810;2022-10-16T03:36:56;29.50;99.90
31575;DHT22;18182;1.328;103.810;2022-10-16T03:39:22;29.60;99.90
31575;DHT22;18182;1.328;103.810;2022-10-16T03:41:48;29.60;99.90
31575;DHT22;18182;1.328;103.810;2022-10-16T03:44:14;29.70;99.90
31575;DHT22;18182;1.328;103.810;2022-10-16T03:46:40;29.70;99.90
31575;DHT22;18182;1.328;103.810;2022-10-16T03:49:06;29.70;99.90
31575;DHT22;18182;1.328;103.810;2022-10-16T03:51:32;29.70;99.90
31575;DHT22;18182;1.328;103.810;2022-10-16T03:53:59;29.70;99.90
31575;DHT22;18182;1.328;103.810;2022-10-16T03:56:25;29.80;99.90
31575;DHT22;18182;1.328;103.810;2022-10-16T03:58:51;29.80;99.90
31575;DHT22;18182;1.328;103.810;2022-10-16T04:01:17;29.90;99.90
31575;DHT22;18182;1.328;103.810;2022-10-16T04:03:43;29.90;99.90
31575;DHT22;18182;1.328;103.810;2022-10-16T04:06:09;29.90;99.90
31575;DHT22;18182;1.328;103.810;2022-10-16T04:08:36;30.00;99.90
31575;DHT22;18182;1.328;103.810;2022-10-16T04:11:02;30.10;99.90
31575;DHT22;18182;1.328;103.810;2022-10-16T04:13:29;30.10;99.90
31575;DHT22;18182;1.328;103.810;2022-10-16T04:15:55;30.10;99.90
31575;DHT22;18182;1.328;103.810;2022-10-16T04:18:21;30.10;99.90
31575;DHT22;18182;1.328;103.810;2022-10-16T04:20:47;30.20;99.90
31575;DHT22;18182;1.328;103.810;2022-10-16T04:23:13;30.20;99.90
31575;DHT22;18182;1.328;103.810;2022-10-16T04:25:40;30.20;99.90
31575;DHT22;18182;1.328;103.810;2022-10-16T04:28:06;30.30;99.90
31575;DHT22;18182;1.328;103.810;2022-10-16T04:30:33;30.30;99.90
31575;DHT22;18182;1.328;103.810;2022-10-16T04:32:59;30.30;99.90
31575;DHT22;18182;1.328;103.810;2022-10-16T04:35:25;30.20;99.90
31575;DHT22;18182;1.328;103.810;2022-10-16T04:37:51;30.20;99.90
31575;DHT22;18182;1.328;103.810;2022-10-16T04:40:17;30.20;99.90
31575;DHT22;18182;1.328;103.810;2022-10-16T04:42:43;30.20;99.90
31575;DHT22;18182;1.328;103.810;2022-10-16T04:45:10;30.20;99.90
31575;DHT22;18182;1.328;103.810;2022-10-16T04:47:36;30.20;99.90
31575;DHT22;18182;1.328;103.810;2022-10-16T04:50:02;30.30;99.90
31575;DHT22;18182;1.328;103.810;2022-10-16T04:52:28;30.30;99.90
31575;DHT22;18182;1.328;103.810;2022-10-16T04:54:57;30.40;99.90
31575;DHT22;18182;1.328;103.810;2022-10-16T04:57:26;30.50;99.90
31575;DHT22;18182;1.328;103.810;2022-10-16T04:59:52;30.50;99.90
31575;DHT22;18182;1.328;103.810;2022-10-16T05:02:18;30.60;99.90
31575;DHT22;18182;1.328;103.810;2022-10-16T05:04:45;30.60;99.90
31575;DHT22;18182;1.328;103.810;2022-10-16T05:07:11;30.70;99.90
31575;DHT22;18182;1.328;103.810;2022-10-16T05:09:38;30.80;99.90
31575;DHT22;18182;1.328;103.810;2022-10-16T05:12:04;30.80;99.90
31575;DHT22;18182;1.328;103.810;2022-10-16T05:14:30;30.80;99.90
31575;DHT22;18182;1.328;103.810;2022-10-16T05:16:56;30.80;99.90
31575;DHT22;18182;1.328;103.810;2022-10-16T05:19:22;30.80;99.90
31575;DHT22;18182;1.328;103.810;2022-10-16T05:21:49;30.80;99.90
31575;DHT22;18182;1.328;103.810;2022-10-16T05:24:15;30.80;99.90
31575;DHT22;18182;1.328;103.810;2022-10-16T05:26:41;30.90;99.90
31575;DHT22;18182;1.328;103.810;2022-10-16T05:29:08;30.90;99.90
31575;DHT22;18182;1.328;103.810;2022-10-16T05:31:35;31.10;99.90
31575;DHT22;18182;1.328;103.810;2022-10-16T05:34:01;31.10;99.90
31575;DHT22;18182;1.328;103.810;2022-10-16T05:36:28;31.20;99.90
31575;DHT22;18182;1.328;103.810;2022-10-16T05:38:54;31.20;99.90
31575;DHT22;18182;1.328;103.810;2022-10-16T05:41:20;31.20;99.90
31575;DHT22;18182;1.328;103.810;2022-10-16T05:43:47;31.20;99.90
31575;DHT22;18182;1.328;103.810;2022-10-16T05:46:13;31.20;99.90
31575;DHT22;18182;1.328;103.810;2022-10-16T05:48:40;31.20;99.90
31575;DHT22;18182;1.328;103.810;2022-10-16T05:51:07;31.30;99.90
31575;DHT22;18182;1.328;103.810;2022-10-16T05:53:34;31.30;99.90
31575;DHT22;18182;1.328;103.810;2022-10-16T05:56:01;31.30;99.90
31575;DHT22;18182;1.328;103.810;2022-10-16T05:58:31;31.30;99.90
31575;DHT22;18182;1.328;103.810;2022-10-16T06:00:58;31.30;99.90
31575;DHT22;18182;1.328;103.810;2022-10-16T06:03:25;31.30;99.90
31575;DHT22;18182;1.328;103.810;2022-10-16T06:05:51;31.30;99.90
31575;DHT22;18182;1.328;103.810;2022-10-16T06:08:18;31.30;99.90
31575;DHT22;18182;1.328;103.810;2022-10-16T06:10:44;31.20;99.90
31575;DHT22;18182;1.328;103.810;2022-10-16T06:13:11;31.30;99.90
31575;DHT22;18182;1.328;103.810;2022-10-16T06:15:37;31.30;99.90
31575;DHT22;18182;1.328;103.810;2022-10-16T06:18:05;31.40;99.90
31575;DHT22;18182;1.328;103.810;2022-10-16T06:20:31;31.40;99.90
31575;DHT22;18182;1.328;103.810;2022-10-16T06:22:57;31.40;99.90
31575;DHT22;18182;1.328;103.810;2022-10-16T06:25:23;31.40;99.90
31575;DHT22;18182;1.328;103.810;2022-10-16T06:27:49;31.40;99.90
31575;DHT22;18182;1.328;103.810;2022-10-16T06:30:15;31.40;99.90
31575;DHT22;18182;1.328;103.810;2022-10-16T06:32:41;31.50;99.90
31575;DHT22;18182;1.328;103.810;2022-10-16T06:35:07;31.50;99.90
31575;DHT22;18182;1.328;103.810;2022-10-16T06:37:33;31.60;99.90
31575;DHT22;18182;1.328;103.810;2022-10-16T06:40:00;31.60;99.90
31575;DHT22;18182;1.328;103.810;2022-10-16T06:42:26;31.70;99.90
31575;DHT22;18182;1.328;103.810;2022-10-16T06:44:52;31.70;99.90
31575;DHT22;18182;1.328;103.810;2022-10-16T06:47:18;31.80;99.90
31575;DHT22;18182;1.328;103.810;2022-10-16T06:49:44;31.80;99.90
31575;DHT22;18182;1.328;103.810;2022-10-16T06:52:11;31.90;99.80
31575;DHT22;18182;1.328;103.810;2022-10-16T06:54:37;31.90;99.80
31575;DHT22;18182;1.328;103.810;2022-10-16T06:57:03;31.90;99.90
31575;DHT22;18182;1.328;103.810;2022-10-16T06:59:29;32.00;99.90
31575;DHT22;18182;1.328;103.810;2022-10-16T07:01:55;32.00;99.60
31575;DHT22;18182;1.328;103.810;2022-10-16T07:04:21;32.00;99.50
31575;DHT22;18182;1.328;103.810;2022-10-16T07:06:47;31.90;99.10
31575;DHT22;18182;1.328;103.810;2022-10-16T07:09:13;31.90;99.00
31575;DHT22;18182;1.328;103.810;2022-10-16T07:11:40;31.90;99.00
31575;DHT22;18182;1.328;103.810;2022-10-16T07:14:14;31.80;99.10
31575;DHT22;18182;1.328;103.810;2022-10-16T07:16:40;31.80;99.30
31575;DHT22;18182;1.328;103.810;2022-10-16T07:19:08;31.70;99.10
31575;DHT22;18182;1.328;103.810;2022-10-16T07:21:34;31.80;99.20
31575;DHT22;18182;1.328;103.810;2022-10-16T07:24:04;31.70;99.20
31575;DHT22;18182;1.328;103.810;2022-10-16T07:26:32;31.70;99.20
31575;DHT22;18182;1.328;103.810;2022-10-16T07:28:58;31.70;98.90
31575;DHT22;18182;1.328;103.810;2022-10-16T07:31:24;31.60;99.10
31575;DHT22;18182;1.328;103.810;2022-10-16T07:33:51;31.60;99.10
31575;DHT22;18182;1.328;103.810;2022-10-16T07:36:17;31.60;99.00
31575;DHT22;18182;1.328;103.810;2022-10-16T07:38:44;31.60;99.20
31575;DHT22;18182;1.328;103.810;2022-10-16T07:41:11;31.60;99.40
31575;DHT22;18182;1.328;103.810;2022-10-16T07:43:37;31.60;99.50
31575;DHT22;18182;1.328;103.810;2022-10-16T07:46:04;31.60;99.40
31575;DHT22;18182;1.328;103.810;2022-10-16T07:48:31;31.60;99.60
31575;DHT22;18182;1.328;103.810;2022-10-16T07:50:58;31.60;99.30
31575;DHT22;18182;1.328;103.810;2022-10-16T07:53:24;31.60;99.30
31575;DHT22;18182;1.328;103.810;2022-10-16T07:55:51;31.70;99.40
31575;DHT22;18182;1.328;103.810;2022-10-16T07:58:17;31.70;99.40
31575;DHT22;18182;1.328;103.810;2022-10-16T08:00:43;31.70;99.20
31575;DHT22;18182;1.328;103.810;2022-10-16T08:03:09;31.70;99.20
31575;DHT22;18182;1.328;103.810;2022-10-16T08:05:35;31.60;99.40
31575;DHT22;18182;1.328;103.810;2022-10-16T08:08:02;31.60;99.10
31575;DHT22;18182;1.328;103.810;2022-10-16T08:10:28;31.60;99.20
31575;DHT22;18182;1.328;103.810;2022-10-16T08:12:55;31.60;99.80
31575;DHT22;18182;1.328;103.810;2022-10-16T08:15:21;31.70;99.30
31575;DHT22;18182;1.328;103.810;2022-10-16T08:18:03;31.70;99.30
31575;DHT22;18182;1.328;103.810;2022-10-16T08:20:29;31.60;99.20
31575;DHT22;18182;1.328;103.810;2022-10-16T08:22:56;31.60;99.20
31575;DHT22;18182;1.328;103.810;2022-10-16T08:25:23;31.60;99.10
31575;DHT22;18182;1.328;103.810;2022-10-16T08:27:49;31.50;99.40
31575;DHT22;18182;1.328;103.810;2022-10-16T08:30:16;31.40;99.40
31575;DHT22;18182;1.328;103.810;2022-10-16T08:32:42;31.40;99.50
31575;DHT22;18182;1.328;103.810;2022-10-16T08:35:09;31.30;99.50
31575;DHT22;18182;1.328;103.810;2022-10-16T08:37:36;31.30;99.80
31575;DHT22;18182;1.328;103.810;2022-10-16T08:40:02;31.30;99.90
31575;DHT22;18182;1.328;103.810;2022-10-16T08:47:35;31.20;99.90
31575;DHT22;18182;1.328;103.810;2022-10-16T08:50:12;31.20;99.90
31575;DHT22;18182;1.328;103.810;2022-10-16T08:52:42;31.20;99.90
31575;DHT22;18182;1.328;103.810;2022-10-16T08:55:51;31.20;99.90
31575;DHT22;18182;1.328;103.810;2022-10-16T08:57:59;31.10;99.90
31575;DHT22;18182;1.328;103.810;2022-10-16T09:00:25;31.10;99.90
31575;DHT22;18182;1.328;103.810;2022-10-16T09:02:59;31.10;99.90
31575;DHT22;18182;1.328;103.810;2022-10-16T09:13:03;31.10;99.90
31575;DHT22;18182;1.328;103.810;2022-10-16T09:15:42;31.10;99.90
31575;DHT22;18182;1.328;103.810;2022-10-16T09:18:23;31.10;99.90
31575;DHT22;18182;1.328;103.810;2022-10-16T09:20:51;31.00;99.90
31575;DHT22;18182;1.328;103.810;2022-10-16T09:23:28;31.00;99.90
31575;DHT22;18182;1.328;103.810;2022-10-16T09:25:55;31.00;99.90
31575;DHT22;18182;1.328;103.810;2022-10-16T09:28:23;30.90;99.90
31575;DHT22;18182;1.328;103.810;2022-10-16T09:30:49;31.00;99.90
31575;DHT22;18182;1.328;103.810;2022-10-16T09:33:15;31.00;99.90
31575;DHT22;18182;1.328;103.810;2022-10-16T09:35:45;31.00;99.90
31575;DHT22;18182;1.328;103.810;2022-10-16T09:38:28;30.90;99.90
31575;DHT22;18182;1.328;103.810;2022-10-16T09:40:55;30.90;99.90
31575;DHT22;18182;1.328;103.810;2022-10-16T09:43:25;30.90;99.90
31575;DHT22;18182;1.328;103.810;2022-10-16T09:46:00;30.90;99.90
31575;DHT22;18182;1.328;103.810;2022-10-16T09:48:28;30.90;99.90
31575;DHT22;18182;1.328;103.810;2022-10-16T09:50:58;30.90;99.90
31575;DHT22;18182;1.328;103.810;2022-10-16T09:53:25;30.80;99.90
31575;DHT22;18182;1.328;103.810;2022-10-16T09:55:53;30.80;99.90
31575;DHT22;18182;1.328;103.810;2022-10-16T09:58:22;30.80;99.90
31575;DHT22;18182;1.328;103.810;2022-10-16T10:00:52;30.80;99.90
31575;DHT22;18182;1.328;103.810;2022-10-16T10:03:37;30.70;99.90
31575;DHT22;18182;1.328;103.810;2022-10-16T10:06:24;30.70;99.90
31575;DHT22;18182;1.328;103.810;2022-10-16T10:08:54;30.60;99.90
31575;DHT22;18182;1.328;103.810;2022-10-16T10:11:37;30.60;99.90
31575;DHT22;18182;1.328;103.810;2022-10-16T10:14:13;30.60;99.90
31575;DHT22;18182;1.328;103.810;2022-10-16T10:16:41;30.50;99.90
31575;DHT22;18182;1.328;103.810;2022-10-16T10:19:27;30.50;99.90
31575;DHT22;18182;1.328;103.810;2022-10-16T10:21:53;30.50;99.90
31575;DHT22;18182;1.328;103.810;2022-10-16T10:24:19;30.50;99.90
31575;DHT22;18182;1.328;103.810;2022-10-16T10:26:57;30.50;99.90
31575;DHT22;18182;1.328;103.810;2022-10-16T10:34:56;30.40;99.90
31575;DHT22;18182;1.328;103.810;2022-10-16T10:37:49;30.30;99.90
31575;DHT22;18182;1.328;103.810;2022-10-16T10:43:13;30.30;99.90
31575;DHT22;18182;1.328;103.810;2022-10-16T10:45:44;30.20;99.90
31575;DHT22;18182;1.328;103.810;2022-10-16T10:48:24;30.20;99.90
31575;DHT22;18182;1.328;103.810;2022-10-16T10:50:53;30.10;99.90
31575;DHT22;18182;1.328;103.810;2022-10-16T10:55:59;30.00;99.90
31575;DHT22;18182;1.328;103.810;2022-10-16T10:58:41;29.90;99.90
31575;DHT22;18182;1.328;103.810;2022-10-16T11:01:17;29.90;99.90
31575;DHT22;18182;1.328;103.810;2022-10-16T11:06:30;29.80;99.90
31575;DHT22;18182;1.328;103.810;2022-10-16T11:09:03;29.80;99.90
31575;DHT22;18182;1.328;103.810;2022-10-16T11:11:38;29.80;99.90
31575;DHT22;18182;1.328;103.810;2022-10-16T11:16:34;29.80;99.90
31575;DHT22;18182;1.328;103.810;2022-10-16T11:19:10;29.90;99.90
31575;DHT22;18182;1.328;103.810;2022-10-16T11:21:49;29.80;99.90
31575;DHT22;18182;1.328;103.810;2022-10-16T11:24:23;29.80;99.90
31575;DHT22;18182;1.328;103.810;2022-10-16T11:26:50;29.80;99.90
31575;DHT22;18182;1.328;103.810;2022-10-16T11:29:20;29.90;99.90
31575;DHT22;18182;1.328;103.810;2022-10-16T11:31:53;29.90;99.90
31575;DHT22;18182;1.328;103.810;2022-10-16T11:34:22;29.80;99.90
31575;DHT22;18182;1.328;103.810;2022-10-16T11:36:51;29.90;99.90
31575;DHT22;18182;1.328;103.810;2022-10-16T11:39:31;29.90;99.90
31575;DHT22;18182;1.328;103.810;2022-10-16T11:42:00;29.90;99.90
31575;DHT22;18182;1.328;103.810;2022-10-16T11:49:50;29.80;99.90
31575;DHT22;18182;1.328;103.810;2022-10-16T11:52:25;29.80;99.90
31575;DHT22;18182;1.328;103.810;2022-10-16T11:57:21;29.80;99.90
31575;DHT22;18182;1.328;103.810;2022-10-16T11:59:51;29.80;99.90
31575;DHT22;18182;1.328;103.810;2022-10-16T12:04:52;29.70;99.90
31575;DHT22;18182;1.328;103.810;2022-10-16T12:07:24;29.70;99.90
31575;DHT22;18182;1.328;103.810;2022-10-16T12:09:53;29.70;99.90
31575;DHT22;18182;1.328;103.810;2022-10-16T12:12:36;29.70;99.90
31575;DHT22;18182;1.328;103.810;2022-10-16T12:15:25;29.70;99.90
31575;DHT22;18182;1.328;103.810;2022-10-16T12:17:50;29.70;99.90
31575;DHT22;18182;1.328;103.810;2022-10-16T12:22:54;29.60;99.90
31575;DHT22;18182;1.328;103.810;2022-10-16T12:27:53;29.50;99.90
31575;DHT22;18182;1.328;103.810;2022-10-16T12:30:22;29.50;99.90
31575;DHT22;18182;1.328;103.810;2022-10-16T12:33:00;29.50;99.90
31575;DHT22;18182;1.328;103.810;2022-10-16T12:35:28;29.40;99.90
31575;DHT22;18182;1.328;103.810;2022-10-16T12:38:04;29.40;99.90
31575;DHT22;18182;1.328;103.810;2022-10-16T12:40:32;29.40;99.90
31575;DHT22;18182;1.328;103.810;2022-10-16T12:42:58;29.40;99.90
31575;DHT22;18182;1.328;103.810;2022-10-16T12:47:54;29.40;99.90
31575;DHT22;18182;1.328;103.810;2022-10-16T12:50:25;29.40;99.90
31575;DHT22;18182;1.328;103.810;2022-10-16T12:52:52;29.40;99.90
31575;DHT22;18182;1.328;103.810;2022-10-16T12:55:19;29.40;99.90
31575;DHT22;18182;1.328;103.810;2022-10-16T13:00:50;29.40;99.90
31575;DHT22;18182;1.328;103.810;2022-10-16T13:27:20;29.50;99.90
31575;DHT22;18182;1.328;103.810;2022-10-16T13:29:51;29.50;99.90
31575;DHT22;18182;1.328;103.810;2022-10-16T13:32:18;29.40;99.90
31575;DHT22;18182;1.328;103.810;2022-10-16T13:34:46;29.40;99.90
31575;DHT22;18182;1.328;103.810;2022-10-16T13:37:19;29.40;99.90
31575;DHT22;18182;1.328;103.810;2022-10-16T13:39:45;29.40;99.90
31575;DHT22;18182;1.328;103.810;2022-10-16T13:42:13;29.40;99.90
31575;DHT22;18182;1.328;103.810;2022-10-16T13:44:42;29.40;99.90
31575;DHT22;18182;1.328;103.810;2022-10-16T13:47:16;29.40;99.90
31575;DHT22;18182;1.328;103.810;2022-10-16T13:49:43;29.40;99.90
31575;DHT22;18182;1.328;103.810;2022-10-16T13:52:18;29.40;99.90
31575;DHT22;18182;1.328;103.810;2022-10-16T13:54:45;29.40;99.90
31575;DHT22;18182;1.328;103.810;2022-10-16T13:57:13;29.40;99.90
31575;DHT22;18182;1.328;103.810;2022-10-16T13:59:39;29.40;99.90
31575;DHT22;18182;1.328;103.810;2022-10-16T14:02:08;29.40;99.90
31575;DHT22;18182;1.328;103.810;2022-10-16T14:04:40;29.50;99.90
31575;DHT22;18182;1.328;103.810;2022-10-16T14:07:11;29.50;99.90
31575;DHT22;18182;1.328;103.810;2022-10-16T14:09:39;29.50;99.90
31575;DHT22;18182;1.328;103.810;2022-10-16T14:12:08;29.50;99.90
31575;DHT22;18182;1.328;103.810;2022-10-16T14:14:40;29.50;99.90
31575;DHT22;18182;1.328;103.810;2022-10-16T14:19:47;29.50;99.90
31575;DHT22;18182;1.328;103.810;2022-10-16T14:22:28;29.50;99.90
31575;DHT22;18182;1.328;103.810;2022-10-16T14:24:55;29.50;99.90
31575;DHT22;18182;1.328;103.810;2022-10-16T14:27:34;29.50;99.90
31575;DHT22;18182;1.328;103.810;2022-10-16T14:30:21;29.50;99.90
31575;DHT22;18182;1.328;103.810;2022-10-16T14:32:57;29.40;99.90
31575;DHT22;18182;1.328;103.810;2022-10-16T14:35:28;29.40;99.90
31575;DHT22;18182;1.328;103.810;2022-10-16T14:37:54;29.40;99.90
31575;DHT22;18182;1.328;103.810;2022-10-16T14:40:25;29.40;99.90
31575;DHT22;18182;1.328;103.810;2022-10-16T14:42:51;29.40;99.90
31575;DHT22;18182;1.328;103.810;2022-10-16T14:45:19;29.40;99.90
31575;DHT22;18182;1.328;103.810;2022-10-16T14:47:52;29.40;99.90
31575;DHT22;18182;1.328;103.810;2022-10-16T14:50:19;29.40;99.90
31575;DHT22;18182;1.328;103.810;2022-10-16T14:52:46;29.40;99.90
31575;DHT22;18182;1.328;103.810;2022-10-16T14:55:12;29.40;99.90
31575;DHT22;18182;1.328;103.810;2022-10-16T14:57:38;29.50;99.90
31575;DHT22;18182;1.328;103.810;2022-10-16T15:00:21;29.40;99.90
31575;DHT22;18182;1.328;103.810;2022-10-16T15:02:48;29.40;99.90
31575;DHT22;18182;1.328;103.810;2022-10-16T15:07:40;29.50;99.90
31575;DHT22;18182;1.328;103.810;2022-10-16T15:10:07;29.40;99.90
31575;DHT22;18182;1.328;103.810;2022-10-16T15:12:33;29.40;99.90
31575;DHT22;18182;1.328;103.810;2022-10-16T15:14:59;29.40;99.90
31575;DHT22;18182;1.328;103.810;2022-10-16T15:17:25;29.40;99.90
31575;DHT22;18182;1.328;103.810;2022-10-16T15:19:52;29.40;99.90
31575;DHT22;18182;1.328;103.810;2022-10-16T15:22:18;29.40;99.90
31575;DHT22;18182;1.328;103.810;2022-10-16T15:24:44;29.40;99.90
31575;DHT22;18182;1.328;103.810;2022-10-16T15:27:10;29.30;99.90
31575;DHT22;18182;1.328;103.810;2022-10-16T15:29:36;29.30;99.90
31575;DHT22;18182;1.328;103.810;2022-10-16T15:32:03;29.30;99.90
31575;DHT22;18182;1.328;103.810;2022-10-16T15:34:29;29.30;99.90
31575;DHT22;18182;1.328;103.810;2022-10-16T15:36:55;29.30;99.90
31575;DHT22;18182;1.328;103.810;2022-10-16T15:39:23;29.30;99.90
31575;DHT22;18182;1.328;103.810;2022-10-16T15:41:49;29.30;99.90
31575;DHT22;18182;1.328;103.810;2022-10-16T15:44:16;29.30;99.90
31575;DHT22;18182;1.328;103.810;2022-10-16T15:46:42;29.30;99.90
31575;DHT22;18182;1.328;103.810;2022-10-16T15:49:09;29.20;99.90
31575;DHT22;18182;1.328;103.810;2022-10-16T15:51:38;29.20;99.90
31575;DHT22;18182;1.328;103.810;2022-10-16T15:54:04;29.20;99.90
31575;DHT22;18182;1.328;103.810;2022-10-16T15:56:30;29.20;99.90
31575;DHT22;18182;1.328;103.810;2022-10-16T15:58:59;29.20;99.90
31575;DHT22;18182;1.328;103.810;2022-10-16T16:01:25;29.20;99.90
31575;DHT22;18182;1.328;103.810;2022-10-16T16:03:55;29.10;99.90
31575;DHT22;18182;1.328;103.810;2022-10-16T16:06:21;29.10;99.90
31575;DHT22;18182;1.328;103.810;2022-10-16T16:08:51;29.00;99.90
31575;DHT22;18182;1.328;103.810;2022-10-16T16:11:19;29.00;99.90
31575;DHT22;18182;1.328;103.810;2022-10-16T16:13:46;28.90;99.90
31575;DHT22;18182;1.328;103.810;2022-10-16T16:16:13;29.00;99.90
31575;DHT22;18182;1.328;103.810;2022-10-16T16:18:41;28.90;99.90
31575;DHT22;18182;1.328;103.810;2022-10-16T16:21:08;28.90;99.90
31575;DHT22;18182;1.328;103.810;2022-10-16T16:23:35;28.90;99.90
31575;DHT22;18182;1.328;103.810;2022-10-16T16:28:46;28.90;99.90
31575;DHT22;18182;1.328;103.810;2022-10-16T16:31:12;28.90;99.90
31575;DHT22;18182;1.328;103.810;2022-10-16T16:33:38;29.00;99.90
31575;DHT22;18182;1.328;103.810;2022-10-16T16:36:04;28.90;99.90
31575;DHT22;18182;1.328;103.810;2022-10-16T16:38:31;28.90;99.90
31575;DHT22;18182;1.328;103.810;2022-10-16T16:40:58;28.90;99.90
31575;DHT22;18182;1.328;103.810;2022-10-16T16:43:25;28.80;99.90
31575;DHT22;18182;1.328;103.810;2022-10-16T16:45:51;28.80;99.90
31575;DHT22;18182;1.328;103.810;2022-10-16T16:48:17;28.80;99.90
31575;DHT22;18182;1.328;103.810;2022-10-16T16:50:44;28.90;99.90
31575;DHT22;18182;1.328;103.810;2022-10-16T16:53:10;29.00;99.90
31575;DHT22;18182;1.328;103.810;2022-10-16T16:55:36;29.00;99.90
31575;DHT22;18182;1.328;103.810;2022-10-16T16:58:02;29.00;99.90
31575;DHT22;18182;1.328;103.810;2022-10-16T17:00:29;29.00;99.90
31575;DHT22;18182;1.328;103.810;2022-10-16T17:02:56;29.00;99.90